createdAt,value
2019-01-25T00:02:03.722Z,-2.20
2019-01-25T00:04:33.583Z,-2.20
2019-01-25T00:07:03.608Z,-2.10
2019-01-25T00:09:34.276Z,-2.10
2019-01-25T00:12:04.258Z,-2.10
2019-01-25T00:14:34.006Z,-2.20
2019-01-25T00:17:04.024Z,-2.20
2019-01-25T00:19:34.008Z,-2.20
2019-01-25T00:22:04.047Z,-2.10
2019-01-25T00:24:34.401Z,-2.20
2019-01-25T00:27:04.731Z,-2.20
2019-01-25T00:29:34.533Z,-2.20
2019-01-25T00:32:04.521Z,-2.10
2019-01-25T00:34:34.276Z,-2.10
2019-01-25T00:37:04.330Z,-2.00
2019-01-25T00:39:34.114Z,-2.10
2019-01-25T00:42:04.988Z,-1.90
2019-01-25T00:44:34.947Z,-1.90
2019-01-25T00:47:05.245Z,-2.10
2019-01-25T00:49:35.261Z,-2.10
2019-01-25T00:52:05.203Z,-2.00
2019-01-25T00:54:35.138Z,-1.90
2019-01-25T00:57:05.202Z,-2.10
2019-01-25T00:59:34.943Z,-2.10
2019-01-25T01:02:05.252Z,-2.10
2019-01-25T01:04:36.009Z,-2.10
2019-01-25T01:07:06.196Z,-2.00
2019-01-25T01:09:36.770Z,-1.90
2019-01-25T01:12:06.724Z,-2.00
2019-01-25T01:14:36.878Z,-0.80
2019-01-25T01:17:06.881Z,-1.90
2019-01-25T01:19:36.804Z,-1.80
2019-01-25T01:22:06.731Z,-1.90
2019-01-25T01:24:36.574Z,-2.00
2019-01-25T01:27:06.569Z,-2.00
2019-01-25T01:29:36.437Z,-1.90
2019-01-25T01:32:06.704Z,-1.80
2019-01-25T01:34:37.221Z,-1.80
2019-01-25T01:37:07.800Z,-1.80
2019-01-25T01:39:38.292Z,-1.80
2019-01-25T01:42:11.053Z,-1.60
2019-01-25T01:44:41.521Z,-1.70
2019-01-25T01:47:11.437Z,-1.80
2019-01-25T01:49:41.462Z,-1.90
2019-01-25T01:52:11.406Z,-1.90
2019-01-25T01:54:42.313Z,-1.80
2019-01-25T01:57:12.202Z,-1.90
2019-01-25T01:59:41.975Z,-1.80
2019-01-25T02:02:12.897Z,-1.80
2019-01-25T02:04:42.918Z,-1.60
2019-01-25T02:07:12.792Z,-1.70
2019-01-25T02:09:43.573Z,-1.80
2019-01-25T02:12:13.606Z,-1.80
2019-01-25T02:14:43.876Z,-1.70
2019-01-25T02:17:13.814Z,-1.70
2019-01-25T02:19:45.836Z,-1.80
2019-01-25T02:22:16.911Z,-1.70
2019-01-25T02:24:46.894Z,-1.60
2019-01-25T02:27:16.826Z,-1.60
2019-01-25T02:29:46.738Z,-1.70
2019-01-25T02:32:16.724Z,-1.60
2019-01-25T02:34:46.818Z,-1.60
2019-01-25T02:37:16.800Z,-1.60
2019-01-25T02:39:46.749Z,-1.70
2019-01-25T02:42:17.820Z,-1.70
2019-01-25T02:44:47.875Z,-2.80
2019-01-25T02:47:18.886Z,-1.50
2019-01-25T02:49:48.805Z,-1.80
2019-01-25T02:52:18.706Z,-1.80
2019-01-25T02:54:48.669Z,-1.80
2019-01-25T02:57:18.576Z,-1.80
2019-01-25T02:59:48.510Z,-1.80
2019-01-25T03:02:18.349Z,-1.80
2019-01-25T03:04:48.125Z,-1.60
2019-01-25T03:07:18.120Z,-1.40
2019-01-25T03:09:48.241Z,-1.40
2019-01-25T03:12:20.128Z,-1.40
2019-01-25T03:14:50.184Z,-1.40
2019-01-25T03:17:20.225Z,-1.50
2019-01-25T03:19:50.228Z,-1.50
2019-01-25T03:22:20.121Z,-1.50
2019-01-25T03:24:50.178Z,-1.60
2019-01-25T03:27:20.133Z,-1.60
2019-01-25T03:29:49.882Z,-1.50
2019-01-25T03:32:19.694Z,-1.50
2019-01-25T03:34:49.581Z,-1.40
2019-01-25T03:37:19.571Z,-1.50
2019-01-25T03:39:49.448Z,-1.60
2019-01-25T03:42:19.416Z,-1.60
2019-01-25T03:44:50.981Z,-1.60
2019-01-25T03:47:21.035Z,-1.60
2019-01-25T03:49:51.711Z,-1.60
2019-01-25T03:52:21.632Z,-1.60
2019-01-25T03:54:51.706Z,-1.50
2019-01-25T03:57:21.852Z,-1.50
2019-01-25T03:59:52.039Z,-1.50
2019-01-25T04:02:22.037Z,-1.50
2019-01-25T04:04:51.841Z,-1.40
2019-01-25T04:07:21.950Z,-1.40
2019-01-25T04:09:51.867Z,-1.50
2019-01-25T04:12:21.792Z,-1.60
2019-01-25T04:14:51.806Z,-1.60
2019-01-25T04:17:22.392Z,-1.60
2019-01-25T04:19:52.423Z,-1.60
2019-01-25T04:22:22.682Z,-1.70
2019-01-25T04:24:52.641Z,-1.70
2019-01-25T04:27:22.522Z,-1.70
2019-01-25T04:29:52.628Z,-1.60
2019-01-25T04:32:22.424Z,-1.60
2019-01-25T04:34:52.412Z,-1.60
2019-01-25T04:37:22.124Z,-1.60
2019-01-25T04:39:51.972Z,-1.60
2019-01-25T04:42:21.722Z,-1.60
2019-01-25T04:44:51.556Z,-1.70
2019-01-25T04:47:27.809Z,-1.80
2019-01-25T04:49:57.551Z,-1.80
2019-01-25T04:52:27.527Z,-1.70
2019-01-25T04:54:59.920Z,-1.70
2019-01-25T04:57:30.138Z,-1.70
2019-01-25T05:00:01.119Z,-1.70
2019-01-25T05:02:31.037Z,-1.60
2019-01-25T05:05:01.969Z,-1.50
2019-01-25T05:07:32.908Z,-1.60
2019-01-25T05:10:02.933Z,-1.60
2019-01-25T05:12:32.687Z,-1.60
2019-01-25T05:15:02.621Z,-1.70
2019-01-25T05:17:32.553Z,-1.70
2019-01-25T05:20:02.506Z,-1.70
2019-01-25T05:22:32.490Z,-1.60
2019-01-25T05:25:02.478Z,-1.60
2019-01-25T05:27:32.642Z,-1.70
2019-01-25T05:30:02.893Z,-1.70
2019-01-25T05:32:33.137Z,-1.70
2019-01-25T05:35:03.076Z,-1.70
2019-01-25T05:37:34.109Z,-1.80
2019-01-25T05:40:04.933Z,-1.70
2019-01-25T05:42:34.869Z,-1.60
2019-01-25T05:45:10.191Z,-1.60
2019-01-25T05:47:40.024Z,-1.60
2019-01-25T05:50:11.088Z,-0.30
2019-01-25T05:52:41.096Z,-1.60
2019-01-25T05:55:15.621Z,-1.60
2019-01-25T05:57:45.939Z,-1.60
2019-01-25T06:00:20.841Z,-1.60
2019-01-25T06:02:50.819Z,-1.60
2019-01-25T06:05:20.733Z,-1.70
2019-01-25T06:07:50.799Z,-1.70
2019-01-25T06:10:20.840Z,-1.60
2019-01-25T06:12:53.954Z,-1.70
2019-01-25T06:15:27.840Z,-1.70
2019-01-25T06:18:02.412Z,-1.70
2019-01-25T06:20:32.406Z,-1.60
2019-01-25T06:23:02.333Z,-1.50
2019-01-25T06:25:32.123Z,-1.50
2019-01-25T06:28:04.977Z,-1.50
2019-01-25T06:30:34.934Z,-1.50
2019-01-25T06:33:04.824Z,-1.60
2019-01-25T06:35:34.700Z,-1.50
2019-01-25T06:38:04.882Z,-1.50
2019-01-25T06:40:35.130Z,-1.50
2019-01-25T06:43:05.182Z,-1.50
2019-01-25T06:45:35.145Z,-1.60
2019-01-25T06:48:05.562Z,-1.60
2019-01-25T06:50:35.563Z,-1.50
2019-01-25T06:53:06.505Z,-1.50
2019-01-25T06:55:36.516Z,-1.50
2019-01-25T06:58:41.223Z,-1.30
2019-01-25T07:01:25.100Z,-1.30
2019-01-25T07:03:55.100Z,-1.40
2019-01-25T07:06:24.979Z,-1.40
2019-01-25T07:08:56.792Z,-1.50
2019-01-25T07:11:26.612Z,-1.50
2019-01-25T07:13:56.908Z,-1.40
2019-01-25T07:16:26.824Z,-1.30
2019-01-25T07:18:56.777Z,-1.50
2019-01-25T07:21:26.626Z,-1.50
2019-01-25T07:23:57.697Z,-1.50
2019-01-25T07:26:27.581Z,-1.40
2019-01-25T07:28:57.801Z,-1.50
2019-01-25T07:31:27.752Z,-1.40
2019-01-25T07:33:57.592Z,-1.40
2019-01-25T07:36:27.757Z,-1.10
2019-01-25T07:38:57.705Z,-1.50
2019-01-25T07:41:27.797Z,-1.50
2019-01-25T07:43:57.853Z,-1.50
2019-01-25T07:46:27.753Z,-1.50
2019-01-25T07:48:57.686Z,-1.40
2019-01-25T07:51:27.884Z,-1.40
2019-01-25T07:53:57.732Z,-1.30
2019-01-25T07:56:28.786Z,-1.30
2019-01-25T07:58:58.884Z,-1.30
2019-01-25T08:01:28.840Z,-1.30
2019-01-25T08:03:58.660Z,-1.20
2019-01-25T08:06:28.759Z,-1.20
2019-01-25T08:08:58.780Z,-1.20
2019-01-25T08:11:29.016Z,-1.10
2019-01-25T08:13:59.673Z,-1.10
2019-01-25T08:16:30.580Z,-1.00
2019-01-25T08:19:01.055Z,-1.00
2019-01-25T08:21:30.901Z,-1.00
2019-01-25T08:24:00.912Z,-0.80
2019-01-25T08:26:30.817Z,-0.80
2019-01-25T08:29:00.845Z,-0.80
2019-01-25T08:31:31.103Z,-0.70
2019-01-25T08:34:01.001Z,-0.60
2019-01-25T08:36:31.526Z,-0.80
2019-01-25T08:39:01.430Z,-0.90
2019-01-25T08:41:32.602Z,-0.80
2019-01-25T08:44:02.512Z,-0.90
2019-01-25T08:46:32.585Z,-0.90
2019-01-25T08:49:02.575Z,-0.90
2019-01-25T08:51:32.714Z,-0.70
2019-01-25T08:54:03.601Z,-0.70
2019-01-25T08:56:33.584Z,-0.60
2019-01-25T08:59:03.577Z,-0.50
2019-01-25T09:01:33.445Z,-0.40
2019-01-25T09:04:03.415Z,-0.40
2019-01-25T09:06:33.402Z,-0.30
2019-01-25T09:09:05.627Z,-0.30
2019-01-25T09:11:35.591Z,-0.50
2019-01-25T09:14:05.494Z,-0.40
2019-01-25T09:16:35.353Z,-0.40
2019-01-25T09:19:05.363Z,-0.40
2019-01-25T09:21:35.139Z,-0.40
2019-01-25T09:24:05.210Z,-0.40
2019-01-25T09:26:35.045Z,-0.30
2019-01-25T09:29:05.079Z,-0.30
2019-01-25T09:31:34.964Z,-0.20
2019-01-25T09:34:05.187Z,-0.10
2019-01-25T09:36:35.086Z,0.00
2019-01-25T09:39:08.823Z,0.20
2019-01-25T09:41:39.573Z,0.20
2019-01-25T09:44:09.687Z,0.10
2019-01-25T09:46:39.675Z,0.10
2019-01-25T09:49:09.529Z,0.10
2019-01-25T09:51:39.507Z,0.00
2019-01-25T09:54:09.607Z,0.00
2019-01-25T09:56:39.479Z,0.00
2019-01-25T09:59:09.514Z,0.00
2019-01-25T10:01:39.300Z,0.10
2019-01-25T10:04:09.307Z,0.20
2019-01-25T10:06:39.324Z,0.20
2019-01-25T10:09:09.943Z,0.30
2019-01-25T10:11:39.723Z,0.30
2019-01-25T10:14:09.962Z,0.20
2019-01-25T10:16:39.953Z,0.20
2019-01-25T10:19:09.792Z,0.30
2019-01-25T10:21:40.080Z,0.30
2019-01-25T10:24:09.909Z,0.30
2019-01-25T10:26:39.771Z,0.30
2019-01-25T10:29:09.739Z,0.30
2019-01-25T10:31:39.530Z,0.40
2019-01-25T10:34:09.777Z,0.40
2019-01-25T10:36:40.225Z,0.30
2019-01-25T10:39:10.449Z,0.40
2019-01-25T10:41:40.418Z,0.40
2019-01-25T10:44:10.532Z,0.40
2019-01-25T10:46:40.413Z,0.50
2019-01-25T10:49:10.603Z,0.50
2019-01-25T10:51:40.546Z,0.50
2019-01-25T10:54:10.484Z,0.60
2019-01-25T10:56:42.025Z,0.80
2019-01-25T10:59:11.981Z,0.90
2019-01-25T11:01:42.054Z,1.00
2019-01-25T11:04:12.245Z,0.90
2019-01-25T11:06:42.170Z,0.80
2019-01-25T11:09:12.175Z,0.80
2019-01-25T11:11:42.277Z,0.90
2019-01-25T11:14:12.311Z,1.00
2019-01-25T11:16:42.299Z,1.00
2019-01-25T11:19:12.963Z,0.90
2019-01-25T11:21:42.790Z,1.00
2019-01-25T11:24:14.995Z,1.10
2019-01-25T11:26:45.136Z,1.10
2019-01-25T11:29:15.314Z,1.10
2019-01-25T11:31:45.109Z,1.10
2019-01-25T11:34:15.391Z,1.20
2019-01-25T11:36:45.591Z,1.30
2019-01-25T11:39:15.963Z,1.30
2019-01-25T11:41:45.820Z,1.30
2019-01-25T11:44:15.772Z,1.30
2019-01-25T11:46:45.808Z,1.40
2019-01-25T11:49:15.703Z,1.40
2019-01-25T11:51:46.097Z,0.10
2019-01-25T11:54:16.127Z,1.50
2019-01-25T11:56:46.278Z,1.50
2019-01-25T11:59:16.173Z,1.60
2019-01-25T12:01:46.223Z,1.50
2019-01-25T12:04:16.772Z,1.40
2019-01-25T12:06:46.677Z,1.40
2019-01-25T12:09:16.579Z,1.30
2019-01-25T12:11:46.401Z,1.30
2019-01-25T12:14:16.329Z,1.30
2019-01-25T12:16:46.085Z,1.40
2019-01-25T12:19:15.923Z,1.40
2019-01-25T12:21:45.681Z,1.40
2019-01-25T12:24:15.843Z,1.40
2019-01-25T12:26:45.654Z,1.30
2019-01-25T12:29:16.024Z,1.40
2019-01-25T12:31:46.043Z,1.30
2019-01-25T12:34:16.659Z,1.40
2019-01-25T12:36:46.424Z,1.30
2019-01-25T12:39:16.362Z,1.40
2019-01-25T12:41:46.223Z,1.40
2019-01-25T12:44:19.200Z,1.40
2019-01-25T12:46:48.964Z,1.40
2019-01-25T12:49:18.825Z,1.40
2019-01-25T12:51:54.129Z,1.40
2019-01-25T12:54:24.123Z,1.50
2019-01-25T12:56:54.059Z,1.60
2019-01-25T12:59:23.909Z,1.60
2019-01-25T13:01:53.709Z,1.60
2019-01-25T13:04:23.772Z,1.60
2019-01-25T13:06:53.621Z,1.70
2019-01-25T13:09:23.563Z,1.80
2019-01-25T13:11:53.840Z,1.70
2019-01-25T13:14:23.744Z,1.70
2019-01-25T13:16:53.706Z,1.80
2019-01-25T13:19:23.590Z,1.90
2019-01-25T13:21:53.420Z,2.00
2019-01-25T13:24:23.283Z,2.10
2019-01-25T13:26:53.307Z,2.10
2019-01-25T13:29:26.309Z,2.10
2019-01-25T13:31:54.850Z,2.20
2019-01-25T13:34:24.853Z,2.40
2019-01-25T13:36:57.131Z,2.40
2019-01-25T13:39:27.345Z,2.30
2019-01-25T13:41:58.539Z,2.30
2019-01-25T13:44:30.346Z,2.30
2019-01-25T13:47:01.395Z,2.30
2019-01-25T13:49:31.800Z,2.30
2019-01-25T13:52:01.662Z,2.40
2019-01-25T13:54:31.479Z,2.50
2019-01-25T13:57:01.447Z,2.40
2019-01-25T13:59:31.405Z,2.50
2019-01-25T14:02:02.276Z,2.50
2019-01-25T14:04:32.115Z,2.40
2019-01-25T14:07:01.955Z,2.30
2019-01-25T14:09:31.854Z,2.30
2019-01-25T14:12:01.655Z,2.30
2019-01-25T14:14:31.642Z,2.30
2019-01-25T14:17:01.453Z,2.30
2019-01-25T14:19:31.292Z,2.30
2019-01-25T14:22:01.944Z,2.30
2019-01-25T14:24:31.757Z,2.40
2019-01-25T14:27:03.214Z,2.40
2019-01-25T14:29:33.214Z,2.40
2019-01-25T14:32:03.047Z,2.50
2019-01-25T14:34:32.950Z,2.60
2019-01-25T14:37:02.939Z,2.50
2019-01-25T14:39:32.969Z,2.60
2019-01-25T14:42:02.852Z,2.60
2019-01-25T14:44:32.629Z,2.60
2019-01-25T14:47:02.613Z,2.70
2019-01-25T14:49:32.424Z,2.90
2019-01-25T14:52:03.812Z,3.00
2019-01-25T14:54:33.636Z,2.90
2019-01-25T14:57:03.481Z,2.90
2019-01-25T14:59:33.428Z,2.80
2019-01-25T15:02:03.414Z,2.70
2019-01-25T15:04:33.265Z,2.70
2019-01-25T15:07:03.188Z,2.60
2019-01-25T15:09:33.005Z,2.50
2019-01-25T15:12:02.833Z,2.50
2019-01-25T15:14:32.778Z,2.40
2019-01-25T15:17:02.665Z,2.50
2019-01-25T15:19:32.900Z,2.50
2019-01-25T15:22:02.740Z,2.50
2019-01-25T15:24:33.205Z,2.50
2019-01-25T15:27:03.226Z,2.50
2019-01-25T15:29:33.180Z,2.50
2019-01-25T15:32:03.832Z,2.50
2019-01-25T15:34:33.645Z,2.40
2019-01-25T15:37:04.538Z,2.40
2019-01-25T15:39:34.426Z,2.40
2019-01-25T15:42:04.320Z,2.40
2019-01-25T15:44:34.313Z,2.40
2019-01-25T15:47:04.220Z,2.40
2019-01-25T15:49:34.178Z,2.40
2019-01-25T15:52:04.323Z,2.40
2019-01-25T15:54:34.199Z,2.30
2019-01-25T15:57:04.317Z,2.30
2019-01-25T15:59:34.136Z,2.30
2019-01-25T16:02:04.357Z,2.20
2019-01-25T16:04:34.977Z,2.30
2019-01-25T16:07:05.188Z,2.20
2019-01-25T16:09:36.031Z,2.20
2019-01-25T16:12:05.967Z,2.30
2019-01-25T16:14:36.624Z,2.30
2019-01-25T16:17:10.625Z,2.30
2019-01-25T16:19:40.673Z,2.20
2019-01-25T16:22:10.625Z,2.20
2019-01-25T16:24:40.486Z,2.30
2019-01-25T16:27:10.553Z,2.30
2019-01-25T16:29:40.380Z,2.20
2019-01-25T16:32:10.390Z,2.20
2019-01-25T16:34:40.216Z,2.20
2019-01-25T16:37:10.023Z,2.20
2019-01-25T16:39:39.776Z,2.20
2019-01-25T16:42:09.627Z,2.30
2019-01-25T16:44:40.023Z,2.30
2019-01-25T16:47:11.930Z,2.20
2019-01-25T16:49:42.168Z,2.10
2019-01-25T16:52:12.414Z,2.10
2019-01-25T16:54:42.405Z,2.10
2019-01-25T16:57:12.543Z,2.00
2019-01-25T16:59:44.215Z,2.10
2019-01-25T17:02:15.637Z,2.10
2019-01-25T17:04:47.472Z,2.00
2019-01-25T17:07:20.586Z,2.00
2019-01-25T17:09:51.985Z,1.90
2019-01-25T17:12:23.828Z,1.90
2019-01-25T17:14:53.580Z,1.90
2019-01-25T17:17:23.529Z,1.80
2019-01-25T17:19:53.490Z,1.80
2019-01-25T17:22:23.307Z,1.90
2019-01-25T17:24:53.187Z,1.80
2019-01-25T17:27:23.100Z,1.80
2019-01-25T17:29:54.933Z,1.80
2019-01-25T17:32:24.829Z,1.80
2019-01-25T17:34:54.861Z,1.70
2019-01-25T17:37:24.647Z,1.80
2019-01-25T17:39:55.847Z,1.80
2019-01-25T17:42:25.637Z,1.80
2019-01-25T17:44:55.447Z,1.80
2019-01-25T17:47:25.395Z,1.80
2019-01-25T17:49:55.544Z,1.80
2019-01-25T17:52:25.399Z,1.80
2019-01-25T17:54:56.660Z,1.80
2019-01-25T17:57:26.469Z,1.80
2019-01-25T17:59:56.338Z,1.80
2019-01-25T18:02:26.145Z,1.70
2019-01-25T18:04:56.047Z,1.60
2019-01-25T18:07:26.901Z,1.70
2019-01-25T18:09:56.827Z,1.70
2019-01-25T18:12:27.027Z,1.80
2019-01-25T18:14:57.044Z,1.80
2019-01-25T18:17:27.227Z,1.80
2019-01-25T18:19:57.371Z,1.90
2019-01-25T18:22:27.491Z,1.80
2019-01-25T18:24:58.225Z,1.80
2019-01-25T18:27:28.172Z,1.80
2019-01-25T18:29:59.760Z,1.80
2019-01-25T18:32:29.799Z,1.80
2019-01-25T18:34:59.787Z,1.90
2019-01-25T18:37:29.565Z,1.90
2019-01-25T18:39:59.478Z,1.90
2019-01-25T18:42:29.285Z,2.00
2019-01-25T18:44:59.623Z,1.90
2019-01-25T18:47:29.593Z,1.90
2019-01-25T18:49:59.717Z,2.10
2019-01-25T18:52:29.519Z,2.10
2019-01-25T18:54:59.437Z,2.10
2019-01-25T18:57:29.433Z,2.10
2019-01-25T19:00:00.409Z,2.00
2019-01-25T19:02:30.956Z,2.10
2019-01-25T19:05:01.011Z,2.20
2019-01-25T19:07:31.233Z,2.20
2019-01-25T19:10:01.642Z,2.30
2019-01-25T19:12:31.782Z,2.30
2019-01-25T19:15:04.470Z,2.30
2019-01-25T19:17:34.072Z,2.30
2019-01-25T19:20:07.428Z,2.30
2019-01-25T19:22:38.690Z,2.40
2019-01-25T19:25:10.067Z,2.50
2019-01-25T19:27:40.728Z,2.40
2019-01-25T19:30:32.931Z,2.40
2019-01-25T19:33:02.961Z,2.40
2019-01-25T19:35:32.879Z,2.40
2019-01-25T19:38:02.887Z,2.30
2019-01-25T19:40:33.074Z,2.40
2019-01-25T19:43:03.279Z,2.40
2019-01-25T19:45:34.428Z,2.40
2019-01-25T19:48:05.272Z,2.40
2019-01-25T19:50:35.314Z,2.40
2019-01-25T19:53:06.571Z,2.40
2019-01-25T19:55:36.557Z,2.50
2019-01-25T19:58:09.562Z,2.40
2019-01-25T20:00:40.440Z,2.50
2019-01-25T20:03:10.627Z,2.50
2019-01-25T20:05:42.242Z,2.50
2019-01-25T20:08:13.005Z,2.50
2019-01-25T20:10:43.923Z,2.50
2019-01-25T20:13:15.875Z,2.60
2019-01-25T20:15:45.899Z,2.60
2019-01-25T20:18:15.873Z,2.60
2019-01-25T20:20:45.853Z,2.60
2019-01-25T20:23:15.829Z,2.60
2019-01-25T20:25:45.796Z,2.60
2019-01-25T20:28:15.706Z,2.60
2019-01-25T20:30:49.744Z,2.60
2019-01-25T20:33:17.375Z,2.60
2019-01-25T20:35:47.292Z,2.40
2019-01-25T20:38:18.420Z,2.60
2019-01-25T20:40:48.471Z,2.60
2019-01-25T20:43:18.476Z,2.60
2019-01-25T20:45:48.537Z,2.60
2019-01-25T20:48:18.532Z,2.70
2019-01-25T20:50:49.086Z,2.70
2019-01-25T20:53:19.253Z,2.70
2019-01-25T20:55:49.297Z,2.70
2019-01-25T20:58:19.225Z,2.80
2019-01-25T21:00:49.154Z,2.80
2019-01-25T21:03:19.093Z,2.80
2019-01-25T21:05:49.474Z,2.80
2019-01-25T21:08:20.252Z,2.80
2019-01-25T21:10:50.546Z,2.90
2019-01-25T21:13:20.596Z,2.80
2019-01-25T21:15:50.659Z,2.90
2019-01-25T21:18:20.568Z,2.90
2019-01-25T21:20:50.559Z,2.90
2019-01-25T21:23:21.397Z,2.90
2019-01-25T21:25:51.310Z,2.90
2019-01-25T21:28:21.443Z,2.90
2019-01-25T21:30:51.580Z,2.90
2019-01-25T21:33:22.448Z,2.90
2019-01-25T21:35:52.671Z,2.90
2019-01-25T21:38:22.730Z,2.90
2019-01-25T21:40:52.670Z,2.90
2019-01-25T21:43:22.452Z,2.90
2019-01-25T21:45:52.373Z,3.00
2019-01-25T21:48:22.599Z,3.10
2019-01-25T21:50:54.181Z,3.00
2019-01-25T21:53:23.997Z,3.00
2019-01-25T21:55:55.068Z,3.00
2019-01-25T21:58:25.261Z,3.00
2019-01-25T22:00:55.009Z,3.10
2019-01-25T22:03:24.852Z,3.10
2019-01-25T22:05:55.638Z,3.10
2019-01-25T22:08:26.035Z,3.10
2019-01-25T22:10:56.322Z,3.10
2019-01-25T22:13:26.299Z,3.10
2019-01-25T22:15:56.835Z,3.10
2019-01-25T23:53:52.550Z,3.90
2019-01-25T23:56:22.461Z,4.00
2019-01-25T23:58:52.767Z,4.00
